createdAt,value
2018-02-25T00:01:05.198Z,96.30
2018-02-25T00:03:33.555Z,96.50
2018-02-25T00:06:01.122Z,96.50
2018-02-25T00:08:29.439Z,96.20
2018-02-25T00:10:57.186Z,96.20
2018-02-25T00:13:25.517Z,96.60
2018-02-25T00:15:53.071Z,96.60
2018-02-25T00:18:20.582Z,96.40
2018-02-25T00:20:48.928Z,96.60
2018-02-25T00:23:16.454Z,96.60
2018-02-25T00:25:44.000Z,96.60
2018-02-25T00:28:11.550Z,97.10
2018-02-25T00:30:39.889Z,97.10
2018-02-25T00:33:07.443Z,97.10
2018-02-25T00:35:35.010Z,96.90
2018-02-25T00:38:02.726Z,96.60
2018-02-25T00:40:30.334Z,97.30
2018-02-25T00:42:57.893Z,97.10
2018-02-25T00:45:25.505Z,97.60
2018-02-25T00:47:53.106Z,97.70
2018-02-25T00:50:20.679Z,97.70
2018-02-25T00:52:48.286Z,97.80
2018-02-25T00:55:15.864Z,97.40
2018-02-25T00:57:43.438Z,97.60
2018-02-25T01:00:11.022Z,98.00
2018-02-25T01:02:38.574Z,97.70
2018-02-25T01:05:06.150Z,98.20
2018-02-25T01:07:34.499Z,97.90
2018-02-25T01:10:02.069Z,97.80
2018-02-25T01:12:29.845Z,97.90
2018-02-25T01:14:58.219Z,97.50
2018-02-25T01:17:25.741Z,97.50
2018-02-25T01:19:53.240Z,97.70
2018-02-25T01:22:20.835Z,97.20
2018-02-25T01:24:49.076Z,97.20
2018-02-25T01:27:16.580Z,97.30
2018-02-25T01:29:44.832Z,96.70
2018-02-25T01:32:12.419Z,96.70
2018-02-25T01:34:39.972Z,97.10
2018-02-25T01:37:08.233Z,96.90
2018-02-25T01:39:36.488Z,96.80
2018-02-25T01:42:03.993Z,96.60
2018-02-25T01:44:31.484Z,96.60
2018-02-25T01:46:59.007Z,96.40
2018-02-25T01:49:26.538Z,96.70
2018-02-25T01:51:54.124Z,96.40
2018-02-25T01:54:21.676Z,96.50
2018-02-25T01:56:49.956Z,97.00
2018-02-25T01:59:17.456Z,97.00
2018-02-25T02:01:44.943Z,96.90
2018-02-25T02:04:12.430Z,96.80
2018-02-25T02:06:40.710Z,97.10
2018-02-25T02:09:08.961Z,97.00
2018-02-25T02:11:36.455Z,97.00
2018-02-25T02:14:03.945Z,97.40
2018-02-25T02:16:31.447Z,97.70
2018-02-25T02:18:59.699Z,98.00
2018-02-25T02:21:28.017Z,97.90
2018-02-25T02:23:55.505Z,98.00
2018-02-25T02:26:23.029Z,98.00
2018-02-25T02:28:52.417Z,98.10
2018-02-25T02:31:20.685Z,98.20
2018-02-25T02:33:48.167Z,98.20
2018-02-25T02:36:16.445Z,98.50
2018-02-25T02:38:44.697Z,98.40
2018-02-25T02:41:12.201Z,98.40
2018-02-25T02:43:39.810Z,98.80
2018-02-25T02:46:07.391Z,98.60
2018-02-25T02:48:35.638Z,98.90
2018-02-25T02:51:03.145Z,98.90
2018-02-25T02:53:30.637Z,98.80
2018-02-25T02:55:58.160Z,98.80
2018-02-25T02:58:25.644Z,98.80
2018-02-25T03:00:53.156Z,99.10
2018-02-25T03:03:21.417Z,99.30
2018-02-25T03:05:49.000Z,99.30
2018-02-25T03:08:17.285Z,99.20
2018-02-25T03:10:44.793Z,99.20
2018-02-25T03:13:12.296Z,99.20
2018-02-25T03:15:40.559Z,99.40
2018-02-25T03:18:08.810Z,99.40
2018-02-25T03:20:36.420Z,99.40
2018-02-25T03:23:04.632Z,99.50
2018-02-25T03:25:32.132Z,99.60
2018-02-25T03:28:00.879Z,99.70
2018-02-25T03:30:28.391Z,99.60
2018-02-25T03:32:56.222Z,99.50
2018-02-25T03:35:24.494Z,99.60
2018-02-25T03:37:51.984Z,99.60
2018-02-25T03:40:20.936Z,99.80
2018-02-25T03:42:48.454Z,99.80
2018-02-25T03:45:16.004Z,99.90
2018-02-25T03:47:43.564Z,99.90
2018-02-25T03:50:11.055Z,99.80
2018-02-25T03:52:38.587Z,99.90
2018-02-25T03:55:06.086Z,99.90
2018-02-25T03:57:33.588Z,99.90
2018-02-25T04:00:01.841Z,99.90
2018-02-25T04:02:29.335Z,99.90
2018-02-25T04:04:56.844Z,99.90
2018-02-25T04:07:24.345Z,99.90
2018-02-25T04:09:52.619Z,99.90
2018-02-25T04:12:20.869Z,99.90
2018-02-25T04:14:48.386Z,99.90
2018-02-25T04:17:15.871Z,99.90
2018-02-25T04:19:43.372Z,99.90
2018-02-25T04:22:11.644Z,99.90
2018-02-25T04:24:39.902Z,99.90
2018-02-25T04:27:08.104Z,99.90
2018-02-25T04:29:36.360Z,99.90
2018-02-25T04:32:04.666Z,99.90
2018-02-25T04:34:32.178Z,99.90
2018-02-25T04:36:59.696Z,99.90
2018-02-25T04:39:27.185Z,99.90
2018-02-25T04:41:54.673Z,99.90
2018-02-25T04:44:22.245Z,99.90
2018-02-25T04:46:50.540Z,99.90
2018-02-25T04:49:18.046Z,99.90
2018-02-25T04:51:45.547Z,99.90
2018-02-25T04:54:13.822Z,99.90
2018-02-25T04:56:42.082Z,99.90
2018-02-25T04:59:10.377Z,99.90
2018-02-25T05:01:37.899Z,99.90
2018-02-25T05:04:05.392Z,99.90
2018-02-25T05:06:33.723Z,99.90
2018-02-25T05:09:01.523Z,99.90
2018-02-25T05:11:29.805Z,99.90
2018-02-25T05:13:58.060Z,99.90
2018-02-25T05:16:25.590Z,99.90
2018-02-25T05:18:53.092Z,99.90
2018-02-25T05:21:21.356Z,99.90
2018-02-25T05:23:48.872Z,99.90
2018-02-25T05:26:16.365Z,99.90
2018-02-25T05:28:44.628Z,99.90
2018-02-25T05:31:12.145Z,99.90
2018-02-25T05:33:39.652Z,99.90
2018-02-25T05:36:07.139Z,99.90
2018-02-25T05:38:35.418Z,99.90
2018-02-25T05:41:03.671Z,99.90
2018-02-25T05:43:31.257Z,99.90
2018-02-25T05:45:59.636Z,99.90
2018-02-25T05:48:27.899Z,99.90
2018-02-25T05:50:56.164Z,99.90
2018-02-25T05:53:24.456Z,99.90
2018-02-25T05:55:52.748Z,99.90
2018-02-25T05:58:21.030Z,99.90
2018-02-25T06:00:48.579Z,99.90
2018-02-25T06:03:17.091Z,99.90
2018-02-25T06:05:44.585Z,99.90
2018-02-25T06:08:12.075Z,99.90
2018-02-25T06:10:40.450Z,99.90
2018-02-25T06:13:08.708Z,99.90
2018-02-25T06:15:36.213Z,99.90
2018-02-25T06:18:04.488Z,99.90
2018-02-25T06:20:32.020Z,99.90
2018-02-25T06:23:00.351Z,99.90
2018-02-25T06:25:27.848Z,99.90
2018-02-25T06:27:55.347Z,99.90
2018-02-25T06:30:22.948Z,99.90
2018-02-25T06:32:51.358Z,99.90
2018-02-25T06:35:19.616Z,99.90
2018-02-25T06:37:47.214Z,99.90
2018-02-25T06:40:14.704Z,99.90
2018-02-25T06:42:42.217Z,99.90
2018-02-25T06:45:10.528Z,99.90
2018-02-25T06:47:38.049Z,99.90
2018-02-25T06:50:06.332Z,99.90
2018-02-25T06:52:34.661Z,99.90
2018-02-25T06:55:02.212Z,99.90
2018-02-25T06:57:29.753Z,99.90
2018-02-25T06:59:58.336Z,99.90
2018-02-25T07:02:25.855Z,99.90
2018-02-25T07:04:54.182Z,99.90
2018-02-25T07:07:21.699Z,99.90
2018-02-25T07:09:49.972Z,99.60
2018-02-25T07:12:18.244Z,99.50
2018-02-25T07:14:46.515Z,99.30
2018-02-25T07:17:14.024Z,99.30
2018-02-25T07:19:41.528Z,99.10
2018-02-25T07:22:09.019Z,98.80
2018-02-25T07:24:36.536Z,98.70
2018-02-25T07:27:04.824Z,98.10
2018-02-25T07:29:33.135Z,98.30
2018-02-25T07:32:00.695Z,98.00
2018-02-25T07:34:28.245Z,97.60
2018-02-25T07:36:56.512Z,97.40
2018-02-25T07:39:24.794Z,97.30
2018-02-25T07:41:53.063Z,97.40
2018-02-25T07:44:21.367Z,97.20
2018-02-25T07:46:48.880Z,97.10
2018-02-25T07:49:16.367Z,96.60
2018-02-25T07:51:44.623Z,96.30
2018-02-25T07:54:12.204Z,96.30
2018-02-25T07:56:40.483Z,95.80
2018-02-25T07:59:08.743Z,96.00
2018-02-25T08:01:37.016Z,95.90
2018-02-25T08:04:05.310Z,95.70
2018-02-25T08:06:33.604Z,95.50
2018-02-25T08:09:01.100Z,95.50
2018-02-25T08:11:28.607Z,95.50
2018-02-25T08:13:56.874Z,95.10
2018-02-25T08:16:25.173Z,95.10
2018-02-25T08:18:52.683Z,95.10
2018-02-25T08:21:20.207Z,94.50
2018-02-25T08:23:47.712Z,94.40
2018-02-25T08:26:15.302Z,93.90
2018-02-25T08:28:42.860Z,93.80
2018-02-25T08:31:11.136Z,93.50
2018-02-25T08:33:38.888Z,93.50
2018-02-25T08:36:07.162Z,92.30
2018-02-25T08:38:35.579Z,92.20
2018-02-25T08:41:03.076Z,92.20
2018-02-25T08:43:30.572Z,91.60
2018-02-25T08:45:58.855Z,91.50
2018-02-25T08:48:26.359Z,91.50
2018-02-25T08:50:53.865Z,99.90
2018-02-25T08:53:21.490Z,91.50
2018-02-25T08:55:49.017Z,91.10
2018-02-25T08:58:16.534Z,90.40
2018-02-25T09:00:44.805Z,88.90
2018-02-25T09:03:13.091Z,89.00
2018-02-25T09:05:41.382Z,87.90
2018-02-25T09:08:08.889Z,87.90
2018-02-25T09:10:36.419Z,87.10
2018-02-25T09:13:03.917Z,85.90
2018-02-25T09:15:31.408Z,84.10
2018-02-25T09:17:59.700Z,83.20
2018-02-25T09:20:27.184Z,83.20
2018-02-25T09:22:54.684Z,82.90
2018-02-25T09:25:22.226Z,82.70
2018-02-25T09:27:49.711Z,80.20
2018-02-25T09:30:17.972Z,78.60
2018-02-25T09:32:45.483Z,78.70
2018-02-25T09:35:13.002Z,74.70
2018-02-25T09:37:40.564Z,73.40
2018-02-25T09:40:08.894Z,73.50
2018-02-25T09:42:36.388Z,73.60
2018-02-25T09:45:04.729Z,70.00
2018-02-25T09:47:32.261Z,70.20
2018-02-25T09:49:59.748Z,68.90
2018-02-25T09:52:27.272Z,67.00
2018-02-25T09:54:54.972Z,64.60
2018-02-25T09:57:22.455Z,66.80
2018-02-25T09:59:50.755Z,54.80
2018-02-25T10:02:19.132Z,55.30
2018-02-25T10:04:47.438Z,54.40
2018-02-25T10:07:14.948Z,55.00
2018-02-25T10:09:42.532Z,52.30
2018-02-25T10:12:10.803Z,53.00
2018-02-25T10:14:38.319Z,54.10
2018-02-25T10:17:05.839Z,51.00
2018-02-25T10:19:33.340Z,43.70
2018-02-25T10:22:00.963Z,43.50
2018-02-25T10:24:28.485Z,44.80
2018-02-25T10:26:56.018Z,41.40
2018-02-25T10:29:23.532Z,43.70
2018-02-25T10:31:51.019Z,41.70
2018-02-25T10:34:18.555Z,39.80
2018-02-25T10:36:46.108Z,35.50
2018-02-25T10:39:13.779Z,42.80
2018-02-25T10:41:41.323Z,37.30
2018-02-25T10:44:08.846Z,35.20
2018-02-25T10:46:37.131Z,36.90
2018-02-25T10:49:05.417Z,33.10
2018-02-25T10:51:33.768Z,34.20
2018-02-25T10:54:01.264Z,33.90
2018-02-25T10:56:28.933Z,32.50
2018-02-25T10:58:56.501Z,32.00
2018-02-25T11:01:24.010Z,37.00
2018-02-25T11:03:51.505Z,32.90
2018-02-25T11:06:19.108Z,32.40
2018-02-25T11:08:46.592Z,31.90
2018-02-25T11:11:14.107Z,30.70
2018-02-25T11:13:41.606Z,88.90
2018-02-25T11:16:09.144Z,33.50
2018-02-25T11:18:36.636Z,31.50
2018-02-25T11:21:04.912Z,29.60
2018-02-25T11:23:32.536Z,29.60
2018-02-25T11:26:00.206Z,31.00
2018-02-25T11:28:27.724Z,30.10
2018-02-25T11:30:55.971Z,30.00
2018-02-25T11:33:23.454Z,30.00
2018-02-25T11:35:51.832Z,30.30
2018-02-25T11:38:20.099Z,29.70
2018-02-25T11:40:48.354Z,30.00
2018-02-25T11:43:15.848Z,29.90
2018-02-25T11:45:43.342Z,30.50
2018-02-25T11:48:10.842Z,31.10
2018-02-25T11:50:39.119Z,29.90
2018-02-25T11:53:07.430Z,30.00
2018-02-25T11:55:34.868Z,30.00
2018-02-25T11:58:03.149Z,29.50
2018-02-25T12:00:31.401Z,29.50
2018-02-25T12:02:58.902Z,29.50
2018-02-25T12:05:26.421Z,28.70
2018-02-25T12:07:54.728Z,29.40
2018-02-25T12:10:22.215Z,28.90
2018-02-25T12:12:49.704Z,28.60
2018-02-25T12:15:17.351Z,28.50
2018-02-25T12:17:44.864Z,28.10
2018-02-25T12:20:12.440Z,29.70
2018-02-25T12:22:39.915Z,28.90
2018-02-25T12:25:07.448Z,28.20
2018-02-25T12:27:35.031Z,28.30
2018-02-25T12:30:02.532Z,28.80
2018-02-25T12:32:30.035Z,28.00
2018-02-25T12:34:57.573Z,28.40
2018-02-25T12:37:25.842Z,28.70
2018-02-25T12:39:55.079Z,29.90
2018-02-25T12:42:22.603Z,29.70
2018-02-25T12:44:50.855Z,29.80
2018-02-25T12:47:18.452Z,29.70
2018-02-25T12:49:46.008Z,28.50
2018-02-25T12:52:13.561Z,28.80
2018-02-25T12:54:41.124Z,29.60
2018-02-25T12:57:09.387Z,29.70
2018-02-25T12:59:37.671Z,29.20
2018-02-25T13:02:05.944Z,29.40
2018-02-25T13:04:34.196Z,29.60
2018-02-25T13:07:02.501Z,29.40
2018-02-25T13:09:30.052Z,29.30
2018-02-25T13:11:58.344Z,30.00
2018-02-25T13:14:25.895Z,30.00
2018-02-25T13:16:54.163Z,30.20
2018-02-25T13:19:22.420Z,32.70
2018-02-25T13:21:50.015Z,32.70
2018-02-25T13:24:17.573Z,31.60
2018-02-25T13:26:45.132Z,30.90
2018-02-25T13:29:12.676Z,34.00
2018-02-25T13:31:40.972Z,33.80
2018-02-25T13:34:09.084Z,33.80
2018-02-25T13:36:36.582Z,36.20
2018-02-25T13:39:04.859Z,35.60
2018-02-25T13:41:33.268Z,34.20
2018-02-25T13:44:00.796Z,34.10
2018-02-25T13:46:29.080Z,34.80
2018-02-25T13:48:57.339Z,34.50
2018-02-25T13:51:24.932Z,34.50
2018-02-25T13:53:52.485Z,37.00
2018-02-25T13:56:19.978Z,36.20
2018-02-25T13:58:47.484Z,35.60
2018-02-25T14:01:14.971Z,37.60
2018-02-25T14:03:42.489Z,36.20
2018-02-25T14:06:09.988Z,36.00
2018-02-25T14:08:37.475Z,37.80
2018-02-25T14:11:04.992Z,39.00
2018-02-25T14:13:33.271Z,37.60
2018-02-25T14:16:01.648Z,37.80
2018-02-25T14:18:29.900Z,40.50
2018-02-25T14:20:57.375Z,40.50
2018-02-25T14:23:25.635Z,40.10
2018-02-25T14:25:54.673Z,40.80
2018-02-25T14:28:22.166Z,40.80
2018-02-25T14:30:49.668Z,43.00
2018-02-25T14:33:17.961Z,43.50
2018-02-25T14:35:45.521Z,43.50
2018-02-25T14:38:13.019Z,43.20
2018-02-25T14:40:40.512Z,43.90
2018-02-25T14:43:08.776Z,43.90
2018-02-25T14:45:37.793Z,44.60
2018-02-25T14:48:06.049Z,46.80
2018-02-25T14:50:33.554Z,46.50
2018-02-25T14:53:01.040Z,48.70
2018-02-25T14:55:28.601Z,47.60
2018-02-25T14:57:56.108Z,49.00
2018-02-25T15:00:24.393Z,47.60
2018-02-25T15:02:51.888Z,47.70
2018-02-25T15:05:19.506Z,47.30
2018-02-25T15:07:47.752Z,49.60
2018-02-25T15:10:15.917Z,49.30
2018-02-25T15:12:43.629Z,50.90
2018-02-25T15:15:11.241Z,52.20
2018-02-25T15:17:38.733Z,51.80
2018-02-25T15:20:07.022Z,53.90
2018-02-25T15:22:34.601Z,53.70
2018-02-25T15:25:02.116Z,55.40
2018-02-25T15:27:30.414Z,52.80
2018-02-25T15:29:57.905Z,52.70
2018-02-25T15:32:25.420Z,53.10
2018-02-25T15:34:53.701Z,57.50
2018-02-25T15:37:21.956Z,57.90
2018-02-25T15:39:50.246Z,60.40
2018-02-25T15:42:18.540Z,60.50
2018-02-25T15:44:46.034Z,60.50
2018-02-25T15:47:13.551Z,61.00
2018-02-25T15:49:42.003Z,64.30
2018-02-25T15:52:09.611Z,64.30
2018-02-25T15:54:37.099Z,63.70
2018-02-25T15:57:04.598Z,65.10
2018-02-25T15:59:32.866Z,66.10
2018-02-25T16:02:00.360Z,66.10
2018-02-25T16:04:27.882Z,67.20
2018-02-25T16:06:55.408Z,69.40
2018-02-25T16:09:22.928Z,70.80
2018-02-25T16:11:50.524Z,69.30
2018-02-25T16:14:18.044Z,70.00
2018-02-25T16:16:46.303Z,71.30
2018-02-25T16:19:14.578Z,71.00
2018-02-25T16:21:42.856Z,71.80
2018-02-25T16:24:11.194Z,72.70
2018-02-25T16:26:38.687Z,72.70
2018-02-25T16:29:06.980Z,75.80
2018-02-25T16:31:34.485Z,75.00
2018-02-25T16:34:01.992Z,73.00
2018-02-25T16:36:30.255Z,73.50
2018-02-25T16:38:57.815Z,73.70
2018-02-25T16:41:25.347Z,74.10
2018-02-25T16:43:52.899Z,75.00
2018-02-25T16:46:20.398Z,75.00
2018-02-25T16:48:48.680Z,76.90
2018-02-25T16:51:16.951Z,75.60
2018-02-25T16:53:45.293Z,76.20
2018-02-25T16:56:12.787Z,76.20
2018-02-25T16:58:40.277Z,75.90
2018-02-25T17:01:07.830Z,76.30
2018-02-25T17:03:35.443Z,77.40
2018-02-25T17:06:02.962Z,77.90
2018-02-25T17:08:30.466Z,77.80
2018-02-25T17:10:57.960Z,78.10
2018-02-25T17:13:25.515Z,78.50
2018-02-25T17:15:53.041Z,78.60
2018-02-25T17:18:20.662Z,78.60
2018-02-25T17:20:48.155Z,78.20
2018-02-25T17:23:15.704Z,78.50
2018-02-25T17:25:43.247Z,77.80
2018-02-25T17:28:10.760Z,78.00
2018-02-25T17:30:39.047Z,78.70
2018-02-25T17:33:07.324Z,79.10
2018-02-25T17:35:35.584Z,78.60
2018-02-25T17:38:03.162Z,78.60
2018-02-25T17:40:31.436Z,79.80
2018-02-25T17:42:59.695Z,80.00
2018-02-25T17:45:27.182Z,79.90
2018-02-25T17:47:54.692Z,80.70
2018-02-25T17:50:22.187Z,79.40
2018-02-25T17:52:50.492Z,80.80
2018-02-25T17:55:24.376Z,80.70
2018-02-25T17:57:45.595Z,80.40
2018-02-25T18:00:13.141Z,81.10
2018-02-25T18:02:41.393Z,81.80
2018-02-25T18:05:09.077Z,81.70
2018-02-25T18:07:37.433Z,82.80
2018-02-25T18:10:05.020Z,82.70
2018-02-25T18:12:33.308Z,82.90
2018-02-25T18:15:00.873Z,82.80
2018-02-25T18:17:28.456Z,82.90
2018-02-25T18:19:55.951Z,83.20
2018-02-25T18:22:23.457Z,83.70
2018-02-25T18:24:51.002Z,83.20
2018-02-25T18:27:18.579Z,84.20
2018-02-25T18:29:46.112Z,84.60
2018-02-25T18:32:14.419Z,84.90
2018-02-25T18:34:41.927Z,84.90
2018-02-25T18:37:09.442Z,85.30
2018-02-25T18:39:36.960Z,84.80
2018-02-25T18:42:05.223Z,85.60
2018-02-25T18:44:32.720Z,85.60
2018-02-25T18:47:00.269Z,86.00
2018-02-25T18:49:27.787Z,86.60
2018-02-25T18:51:55.304Z,86.70
2018-02-25T18:54:22.818Z,86.90
2018-02-25T18:56:50.347Z,86.80
2018-02-25T18:59:17.823Z,87.60
2018-02-25T19:01:45.342Z,87.10
2018-02-25T19:04:12.846Z,87.60
2018-02-25T19:06:40.328Z,87.50
2018-02-25T19:09:09.048Z,88.50
2018-02-25T19:11:36.572Z,88.00
2018-02-25T19:14:04.854Z,88.80
2018-02-25T19:16:33.244Z,88.80
2018-02-25T19:19:00.736Z,88.80
2018-02-25T19:21:29.057Z,89.70
2018-02-25T19:23:57.390Z,89.30
2018-02-25T19:26:24.901Z,89.30
2018-02-25T19:28:53.205Z,90.20
2018-02-25T19:31:20.720Z,90.10
2018-02-25T19:33:54.712Z,90.10
2018-02-25T19:36:27.812Z,90.00
2018-02-25T19:39:01.109Z,90.10
2018-02-25T19:41:34.282Z,90.10
2018-02-25T19:44:01.778Z,90.20
2018-02-25T19:46:30.047Z,89.80
2018-02-25T19:48:58.329Z,90.00
2018-02-25T19:51:26.590Z,90.00
2018-02-25T19:53:54.093Z,90.00
2018-02-25T19:56:21.605Z,90.40
2018-02-25T19:58:49.871Z,90.50
2018-02-25T20:01:18.884Z,90.80
2018-02-25T20:03:46.396Z,90.80
2018-02-25T20:06:14.008Z,90.60
2018-02-25T20:08:42.270Z,90.80
2018-02-25T20:11:09.829Z,90.80
2018-02-25T20:13:37.335Z,90.70
2018-02-25T20:16:04.875Z,90.80
2018-02-25T20:18:32.411Z,91.00
2018-02-25T20:20:59.895Z,91.10
2018-02-25T20:23:28.176Z,91.10
2018-02-25T20:25:55.809Z,91.00
2018-02-25T20:28:23.404Z,90.90
2018-02-25T20:30:50.896Z,91.10
2018-02-25T20:33:18.417Z,91.30
2018-02-25T20:35:46.071Z,91.10
2018-02-25T20:38:14.452Z,91.50
2018-02-25T20:40:41.997Z,91.40
2018-02-25T20:43:10.269Z,91.20
2018-02-25T20:45:37.842Z,91.20
2018-02-25T20:48:06.191Z,90.80
2018-02-25T20:50:33.695Z,90.70
2018-02-25T20:53:01.236Z,90.50
2018-02-25T20:55:29.512Z,90.30
2018-02-25T20:57:57.023Z,90.30
2018-02-25T21:00:24.524Z,90.10
2018-02-25T21:02:52.808Z,90.40
2018-02-25T21:05:21.125Z,90.40
2018-02-25T21:07:49.416Z,90.40
2018-02-25T21:10:17.035Z,90.20
2018-02-25T21:12:44.537Z,90.10
2018-02-25T21:15:12.050Z,90.40
2018-02-25T21:17:40.340Z,90.40
2018-02-25T21:20:07.849Z,90.30
2018-02-25T21:22:35.350Z,92.10
2018-02-25T21:25:02.873Z,97.90
2018-02-25T21:27:30.363Z,96.80
2018-02-25T21:29:57.847Z,95.80
2018-02-25T21:32:25.401Z,96.80
2018-02-25T21:34:52.904Z,91.80
2018-02-25T21:37:20.403Z,91.00
2018-02-25T21:39:47.953Z,90.50
2018-02-25T21:42:16.224Z,90.20
2018-02-25T21:44:44.496Z,90.40
2018-02-25T21:47:12.802Z,90.50
2018-02-25T21:49:40.315Z,90.50
2018-02-25T21:52:07.836Z,90.50
2018-02-25T21:54:41.154Z,90.50
2018-02-25T21:57:14.342Z,90.80
2018-02-25T21:59:47.619Z,91.00
2018-02-25T22:02:20.925Z,90.90
2018-02-25T22:04:48.479Z,90.80
2018-02-25T22:07:15.988Z,90.80
2018-02-25T22:09:44.255Z,90.70
2018-02-25T22:12:12.572Z,90.80
2018-02-25T22:14:40.056Z,90.80
2018-02-25T22:17:07.545Z,90.40
2018-02-25T22:19:35.815Z,91.20
2018-02-25T22:22:04.121Z,92.10
2018-02-25T22:24:31.620Z,92.00
2018-02-25T22:26:59.121Z,92.70
2018-02-25T22:29:27.434Z,93.20
2018-02-25T22:31:54.980Z,93.20
2018-02-25T22:34:22.484Z,93.60
2018-02-25T22:36:50.048Z,93.90
2018-02-25T22:39:17.558Z,93.80
2018-02-25T22:41:45.108Z,94.10
2018-02-25T22:44:12.667Z,94.00
2018-02-25T22:46:40.942Z,94.10
2018-02-25T22:49:09.203Z,94.20
2018-02-25T22:51:37.472Z,94.40
2018-02-25T22:54:05.068Z,94.40
2018-02-25T22:56:32.743Z,94.70
2018-02-25T22:59:00.235Z,94.70
2018-02-25T23:01:27.743Z,94.50
2018-02-25T23:03:55.422Z,94.40
2018-02-25T23:06:22.908Z,94.50
2018-02-25T23:08:50.501Z,94.70
2018-02-25T23:11:18.764Z,94.40
2018-02-25T23:13:46.249Z,94.40
2018-02-25T23:16:13.769Z,94.50
2018-02-25T23:18:41.355Z,94.50
2018-02-25T23:21:09.644Z,94.50
2018-02-25T23:23:37.993Z,94.50
2018-02-25T23:26:05.608Z,94.50
2018-02-25T23:28:33.139Z,94.60
2018-02-25T23:31:01.529Z,94.70
2018-02-25T23:33:29.023Z,94.70
2018-02-25T23:35:56.544Z,94.50
2018-02-25T23:38:24.036Z,94.60
2018-02-25T23:40:51.532Z,94.50
2018-02-25T23:43:19.112Z,94.60
2018-02-25T23:45:47.415Z,94.30
2018-02-25T23:48:15.790Z,94.30
2018-02-25T23:50:43.339Z,94.30
2018-02-25T23:53:10.864Z,94.40
2018-02-25T23:55:38.373Z,94.50
2018-02-25T23:58:05.915Z,94.40
